createdAt,value
2022-10-01T00:01:19.618Z,12.25
2022-10-01T00:03:47.817Z,12.40
2022-10-01T00:06:19.189Z,12.41
2022-10-01T00:08:49.076Z,12.33
2022-10-01T00:11:22.342Z,12.27
2022-10-01T00:13:50.468Z,12.29
2022-10-01T00:16:23.317Z,12.25
2022-10-01T00:18:50.770Z,12.20
2022-10-01T00:21:20.379Z,12.20
2022-10-01T00:23:47.863Z,12.38
2022-10-01T00:26:23.678Z,12.33
2022-10-01T00:28:55.686Z,12.20
2022-10-01T00:31:22.458Z,12.09
2022-10-01T00:33:49.369Z,12.00
2022-10-01T00:36:18.854Z,12.00
2022-10-01T00:38:47.938Z,11.98
2022-10-01T00:41:17.064Z,11.99
2022-10-01T00:43:53.710Z,11.91
2022-10-01T00:46:29.838Z,11.91
2022-10-01T00:49:07.245Z,11.94
2022-10-01T00:51:41.870Z,11.88
2022-10-01T00:54:46.615Z,11.78
2022-10-01T00:57:17.198Z,11.77
2022-10-01T00:59:45.772Z,11.82
2022-10-01T01:02:12.617Z,11.89
2022-10-01T01:04:40.566Z,11.83
2022-10-01T01:07:08.451Z,11.77
2022-10-01T01:09:38.664Z,11.73
2022-10-01T01:12:27.098Z,11.78
2022-10-01T01:15:11.093Z,11.75
2022-10-01T01:17:57.973Z,11.67
2022-10-01T01:21:02.780Z,11.63
2022-10-01T01:23:44.648Z,11.66
2022-10-01T01:26:38.007Z,11.64
2022-10-01T01:29:18.248Z,11.66
2022-10-01T01:31:46.864Z,11.60
2022-10-01T01:34:20.204Z,11.50
2022-10-01T01:36:54.749Z,11.40
2022-10-01T01:39:25.421Z,11.33
2022-10-01T01:41:58.526Z,11.38
2022-10-01T01:44:31.774Z,11.33
2022-10-01T01:46:59.297Z,11.29
2022-10-01T01:49:26.477Z,11.23
2022-10-01T01:52:19.513Z,11.24
2022-10-01T01:54:47.792Z,11.20
2022-10-01T01:57:18.332Z,11.14
2022-10-01T01:59:46.106Z,11.12
2022-10-01T02:02:25.963Z,11.18
2022-10-01T02:05:00.640Z,11.21
2022-10-01T02:07:54.973Z,11.18
2022-10-01T02:10:47.435Z,11.17
2022-10-01T02:13:48.152Z,11.15
2022-10-01T02:16:22.601Z,11.10
2022-10-01T02:19:09.669Z,11.01
2022-10-01T02:21:45.428Z,11.03
2022-10-01T02:24:14.469Z,11.02
2022-10-01T02:26:47.495Z,11.10
2022-10-01T02:29:17.211Z,11.07
2022-10-01T02:31:47.059Z,11.04
2022-10-01T02:34:20.378Z,11.11
2022-10-01T02:36:49.782Z,11.11
2022-10-01T02:39:19.175Z,11.14
2022-10-01T02:41:50.459Z,11.14
2022-10-01T02:44:38.721Z,11.08
2022-10-01T02:47:23.967Z,11.09
2022-10-01T02:49:52.482Z,11.13
2022-10-01T02:52:35.501Z,11.09
2022-10-01T02:55:09.230Z,11.14
2022-10-01T02:57:36.815Z,11.10
2022-10-01T03:00:09.987Z,10.97
2022-10-01T03:02:38.098Z,10.95
2022-10-01T03:05:05.744Z,10.95
2022-10-01T03:07:37.220Z,10.99
2022-10-01T03:10:05.713Z,11.03
2022-10-01T03:12:33.065Z,11.00
2022-10-01T03:14:59.729Z,11.02
2022-10-01T03:17:26.850Z,10.96
2022-10-01T03:19:53.497Z,10.98
2022-10-01T03:22:24.279Z,11.01
2022-10-01T03:24:54.295Z,11.09
2022-10-01T03:27:22.219Z,11.07
2022-10-01T03:29:49.137Z,11.02
2022-10-01T03:32:16.060Z,11.04
2022-10-01T03:34:42.736Z,11.03
2022-10-01T03:37:10.034Z,11.07
2022-10-01T03:39:40.291Z,11.09
2022-10-01T03:42:07.236Z,11.01
2022-10-01T03:44:34.178Z,10.96
2022-10-01T03:47:00.837Z,11.00
2022-10-01T03:49:28.677Z,10.97
2022-10-01T03:51:55.628Z,10.90
2022-10-01T03:54:27.641Z,10.87
2022-10-01T03:56:54.469Z,10.93
2022-10-01T03:59:21.248Z,11.00
2022-10-01T04:01:48.606Z,10.95
2022-10-01T04:04:17.731Z,10.87
2022-10-01T04:06:44.423Z,10.94
2022-10-01T04:09:11.064Z,10.94
2022-10-01T04:11:39.765Z,10.95
2022-10-01T04:14:06.417Z,10.90
2022-10-01T04:16:36.271Z,10.89
2022-10-01T04:19:04.395Z,10.89
2022-10-01T04:21:31.390Z,10.93
2022-10-01T04:23:59.202Z,10.88
2022-10-01T04:26:26.093Z,10.84
2022-10-01T04:28:52.791Z,10.83
2022-10-01T04:31:26.050Z,10.88
2022-10-01T04:33:58.365Z,10.87
2022-10-01T04:36:26.266Z,10.81
2022-10-01T04:38:58.042Z,10.80
2022-10-01T04:41:30.385Z,10.85
2022-10-01T04:43:59.401Z,10.85
2022-10-01T04:46:26.335Z,10.85
2022-10-01T04:48:55.514Z,10.94
2022-10-01T04:51:22.107Z,10.90
2022-10-01T04:53:48.785Z,10.86
2022-10-01T04:56:15.393Z,10.86
2022-10-01T04:58:42.400Z,10.88
2022-10-01T05:01:10.670Z,10.94
2022-10-01T05:03:37.400Z,11.03
2022-10-01T05:06:04.253Z,11.01
2022-10-01T05:08:31.340Z,11.00
2022-10-01T05:11:00.566Z,11.00
2022-10-01T05:13:30.219Z,11.00
2022-10-01T05:15:57.639Z,11.01
2022-10-01T05:18:24.442Z,11.11
2022-10-01T05:20:51.255Z,11.24
2022-10-01T05:23:17.908Z,11.28
2022-10-01T05:25:46.958Z,11.27
2022-10-01T05:28:18.389Z,11.29
2022-10-01T05:30:47.915Z,11.30
2022-10-01T05:33:14.607Z,11.21
2022-10-01T05:35:41.511Z,11.23
2022-10-01T05:38:08.287Z,11.14
2022-10-01T05:40:34.859Z,11.31
2022-10-01T05:43:04.657Z,11.37
2022-10-01T05:45:32.503Z,11.41
2022-10-01T05:48:01.463Z,11.50
2022-10-01T05:50:31.825Z,11.50
2022-10-01T05:53:10.155Z,11.58
2022-10-01T05:55:37.268Z,11.54
2022-10-01T05:58:06.779Z,11.64
2022-10-01T06:00:34.552Z,11.80
2022-10-01T06:03:03.263Z,11.85
2022-10-01T06:05:37.304Z,11.86
2022-10-01T06:08:10.100Z,11.96
2022-10-01T06:10:39.839Z,12.09
2022-10-01T06:13:07.289Z,12.16
2022-10-01T06:15:37.944Z,12.26
2022-10-01T06:18:06.274Z,12.38
2022-10-01T06:20:33.138Z,12.42
2022-10-01T06:23:00.131Z,12.48
2022-10-01T06:25:29.768Z,12.54
2022-10-01T06:27:59.270Z,12.64
2022-10-01T06:30:30.090Z,12.69
2022-10-01T06:33:05.416Z,12.63
2022-10-01T06:35:33.781Z,12.68
2022-10-01T06:38:03.878Z,12.77
2022-10-01T06:40:31.350Z,12.83
2022-10-01T06:42:58.832Z,13.02
2022-10-01T06:45:26.788Z,13.09
2022-10-01T06:47:58.491Z,13.11
2022-10-01T06:50:25.767Z,13.18
2022-10-01T06:52:53.113Z,13.28
2022-10-01T06:55:27.886Z,13.39
2022-10-01T06:58:02.332Z,13.41
2022-10-01T07:00:31.040Z,13.40
2022-10-01T07:02:57.838Z,13.48
2022-10-01T07:05:25.797Z,13.72
2022-10-01T07:07:53.744Z,13.91
2022-10-01T07:10:21.088Z,13.95
2022-10-01T07:12:50.697Z,14.05
2022-10-01T07:15:19.451Z,14.18
2022-10-01T07:17:47.234Z,14.22
2022-10-01T07:20:14.947Z,14.34
2022-10-01T07:22:41.429Z,14.34
2022-10-01T07:25:08.207Z,14.39
2022-10-01T07:27:34.717Z,14.54
2022-10-01T07:30:01.336Z,14.66
2022-10-01T07:32:28.065Z,14.82
2022-10-01T07:34:54.890Z,14.96
2022-10-01T07:37:21.877Z,15.04
2022-10-01T07:42:48.321Z,15.29
2022-10-01T07:45:15.055Z,15.51
2022-10-01T07:47:42.075Z,15.64
2022-10-01T07:50:08.745Z,15.67
2022-10-01T07:52:45.778Z,15.80
2022-10-01T07:55:15.258Z,15.84
2022-10-01T07:57:41.709Z,16.08
2022-10-01T08:00:11.713Z,16.36
2022-10-01T08:02:41.135Z,16.55
2022-10-01T08:05:21.571Z,16.81
2022-10-01T08:07:48.489Z,16.89
2022-10-01T08:10:15.739Z,16.94
2022-10-01T08:12:42.847Z,17.02
2022-10-01T08:15:13.401Z,17.15
2022-10-01T08:17:40.175Z,17.26
2022-10-01T08:20:07.645Z,17.21
2022-10-01T08:22:36.590Z,17.20
2022-10-01T08:25:06.660Z,17.21
2022-10-01T08:27:33.130Z,17.23
2022-10-01T08:29:59.757Z,17.33
2022-10-01T08:32:27.494Z,17.51
2022-10-01T08:34:57.581Z,17.58
2022-10-01T08:37:35.227Z,17.81
2022-10-01T08:43:41.466Z,17.83
2022-10-01T08:46:18.072Z,17.93
2022-10-01T08:48:57.571Z,18.16
2022-10-01T08:51:24.147Z,18.40
2022-10-01T08:53:52.345Z,18.52
2022-10-01T08:56:28.113Z,18.51
2022-10-01T08:59:00.003Z,18.57
2022-10-01T09:01:26.825Z,18.57
2022-10-01T09:03:53.907Z,18.62
2022-10-01T09:06:20.454Z,18.63
2022-10-01T09:08:58.044Z,18.80
2022-10-01T09:11:33.272Z,18.86
2022-10-01T09:16:41.349Z,18.87
2022-10-01T09:19:32.013Z,18.94
2022-10-01T09:22:02.534Z,19.04
2022-10-01T09:24:32.098Z,19.22
2022-10-01T09:26:58.885Z,19.28
2022-10-01T09:29:28.608Z,19.40
2022-10-01T09:31:56.828Z,19.51
2022-10-01T09:34:33.854Z,19.69
2022-10-01T09:37:04.768Z,19.79
2022-10-01T09:39:37.215Z,19.92
2022-10-01T09:42:04.089Z,20.04
2022-10-01T09:44:32.514Z,20.02
2022-10-01T09:46:59.330Z,20.12
2022-10-01T09:49:30.243Z,20.38
2022-10-01T09:52:18.493Z,20.31
2022-10-01T09:54:49.484Z,20.36
2022-10-01T09:57:22.393Z,20.36
2022-10-01T10:00:12.101Z,20.47
2022-10-01T10:02:48.475Z,20.67
2022-10-01T10:05:15.491Z,20.83
2022-10-01T10:07:50.856Z,20.89
2022-10-01T10:10:25.585Z,21.09
2022-10-01T10:12:57.934Z,21.18
2022-10-01T10:15:27.867Z,21.19
2022-10-01T10:17:55.853Z,21.26
2022-10-01T10:20:39.787Z,21.53
2022-10-01T10:23:16.656Z,21.57
2022-10-01T10:25:43.707Z,21.49
2022-10-01T10:28:20.785Z,21.29
2022-10-01T10:30:48.084Z,21.48
2022-10-01T10:33:14.930Z,21.47
2022-10-01T10:35:41.524Z,21.62
2022-10-01T10:38:17.303Z,21.57
2022-10-01T10:40:45.673Z,21.67
2022-10-01T10:43:22.915Z,21.63
2022-10-01T10:45:56.391Z,21.57
2022-10-01T10:48:33.572Z,21.77
2022-10-01T10:51:01.869Z,21.89
2022-10-01T10:53:29.859Z,22.09
2022-10-01T10:56:03.232Z,22.07
2022-10-01T10:58:42.407Z,22.08
2022-10-01T11:01:13.600Z,22.19
2022-10-01T11:03:48.267Z,22.24
2022-10-01T11:06:16.674Z,22.29
2022-10-01T11:08:43.541Z,22.23
2022-10-01T11:11:10.051Z,22.26
2022-10-01T11:13:39.436Z,22.32
2022-10-01T11:16:18.194Z,22.42
2022-10-01T11:18:58.526Z,22.46
2022-10-01T11:21:37.334Z,22.52
2022-10-01T11:24:25.260Z,22.53
2022-10-01T11:27:06.770Z,22.52
2022-10-01T11:29:39.281Z,22.45
2022-10-01T11:32:19.644Z,22.40
2022-10-01T11:34:53.681Z,22.35
2022-10-01T11:37:20.244Z,22.39
2022-10-01T11:39:48.195Z,22.36
2022-10-01T11:42:17.999Z,22.40
2022-10-01T11:44:47.847Z,22.34
2022-10-01T11:47:17.484Z,22.35
2022-10-01T11:49:43.988Z,22.34
2022-10-01T11:52:16.637Z,22.27
2022-10-01T11:54:56.089Z,22.31
2022-10-01T11:57:43.402Z,22.34
2022-10-01T12:00:13.929Z,22.34
2022-10-01T12:02:43.379Z,22.39
2022-10-01T12:05:18.979Z,22.34
2022-10-01T12:07:57.110Z,22.22
2022-10-01T12:10:42.543Z,22.12
2022-10-01T12:13:22.507Z,21.93
2022-10-01T12:15:58.217Z,21.88
2022-10-01T12:18:33.012Z,21.79
2022-10-01T12:21:01.868Z,21.66
2022-10-01T12:23:32.192Z,21.60
2022-10-01T12:26:01.779Z,21.45
2022-10-01T12:28:28.274Z,21.41
2022-10-01T12:30:59.289Z,21.32
2022-10-01T12:33:55.247Z,21.30
2022-10-01T12:36:26.359Z,21.10
2022-10-01T12:39:45.574Z,21.07
2022-10-01T12:42:25.628Z,21.05
2022-10-01T12:45:21.372Z,21.07
2022-10-01T12:47:59.006Z,21.02
2022-10-01T12:50:44.719Z,20.92
2022-10-01T12:53:18.619Z,20.88
2022-10-01T12:56:04.817Z,20.93
2022-10-01T12:58:31.610Z,20.92
2022-10-01T13:01:04.795Z,20.99
2022-10-01T13:04:02.446Z,20.93
2022-10-01T13:06:51.771Z,20.95
2022-10-01T13:09:22.568Z,21.03
2022-10-01T13:11:58.806Z,21.03
2022-10-01T13:14:25.763Z,21.00
2022-10-01T13:16:54.512Z,20.92
2022-10-01T13:19:21.760Z,20.92
2022-10-01T13:22:20.911Z,20.89
2022-10-01T13:25:00.090Z,20.81
2022-10-01T13:27:36.608Z,20.88
2022-10-01T13:30:24.230Z,20.79
2022-10-01T13:32:53.519Z,20.73
2022-10-01T13:35:26.200Z,20.71
2022-10-01T13:37:54.278Z,20.73
2022-10-01T13:40:22.898Z,20.75
2022-10-01T13:42:50.378Z,20.76
2022-10-01T13:45:25.849Z,20.67
2022-10-01T13:47:57.858Z,20.43
2022-10-01T13:50:28.998Z,20.44
2022-10-01T13:53:34.990Z,20.48
2022-10-01T13:56:01.898Z,20.50
2022-10-01T13:58:31.591Z,20.49
2022-10-01T14:01:00.321Z,20.45
2022-10-01T14:03:36.640Z,20.42
2022-10-01T14:06:05.744Z,20.27
2022-10-01T14:08:38.309Z,20.19
2022-10-01T14:11:31.318Z,20.18
2022-10-01T14:14:20.882Z,20.07
2022-10-01T14:16:47.929Z,19.94
2022-10-01T14:19:18.463Z,19.93
2022-10-01T14:21:53.262Z,19.85
2022-10-01T14:24:52.397Z,19.78
2022-10-01T14:27:21.925Z,19.81
2022-10-01T14:30:11.453Z,19.66
2022-10-01T14:32:51.062Z,19.64
2022-10-01T14:35:26.474Z,19.55
2022-10-01T14:37:59.671Z,19.35
2022-10-01T14:40:35.076Z,19.34
2022-10-01T14:43:10.916Z,19.32
2022-10-01T14:45:37.576Z,19.34
2022-10-01T14:48:07.997Z,19.37
2022-10-01T14:50:37.333Z,19.32
2022-10-01T14:53:05.528Z,19.23
2022-10-01T14:55:34.856Z,19.13
2022-10-01T14:58:01.567Z,19.00
2022-10-01T15:00:29.735Z,18.95
2022-10-01T15:03:22.747Z,18.93
2022-10-01T15:05:49.835Z,18.96
2022-10-01T15:08:18.882Z,18.99
2022-10-01T15:10:47.896Z,18.88
2022-10-01T15:13:23.044Z,18.83
2022-10-01T15:15:49.821Z,18.78
2022-10-01T15:18:17.176Z,18.69
2022-10-01T15:20:54.504Z,18.66
2022-10-01T15:23:22.234Z,18.68
2022-10-01T15:25:49.080Z,18.63
2022-10-01T15:28:16.765Z,18.92
2022-10-01T15:30:43.827Z,18.83
2022-10-01T15:33:27.483Z,18.67
2022-10-01T15:35:56.320Z,18.58
2022-10-01T15:38:23.503Z,18.60
2022-10-01T15:41:01.830Z,18.68
2022-10-01T15:43:36.819Z,18.64
2022-10-01T15:46:11.238Z,18.55
2022-10-01T15:48:39.414Z,18.50
2022-10-01T15:51:12.830Z,18.44
2022-10-01T15:53:39.401Z,18.37
2022-10-01T16:07:22.310Z,18.02
2022-10-01T16:09:52.811Z,18.02
2022-10-01T16:12:21.642Z,18.04
2022-10-01T16:15:10.949Z,17.97
2022-10-01T16:17:38.146Z,17.87
2022-10-01T16:20:24.939Z,17.93
2022-10-01T16:22:51.495Z,17.76
2022-10-01T16:25:17.945Z,17.74
2022-10-01T16:27:45.652Z,17.70
2022-10-01T16:30:19.927Z,17.70
2022-10-01T16:32:46.489Z,17.73
2022-10-01T16:35:16.371Z,17.74
2022-10-01T16:37:43.438Z,17.78
2022-10-01T16:40:15.191Z,17.79
2022-10-01T16:42:42.776Z,17.79
2022-10-01T16:45:14.576Z,17.81
2022-10-01T16:47:41.783Z,17.67
2022-10-01T16:50:12.426Z,17.65
2022-10-01T16:52:40.277Z,17.66
2022-10-01T16:55:15.093Z,17.62
2022-10-01T16:57:42.656Z,17.61
2022-10-01T17:00:10.324Z,17.53
2022-10-01T17:02:37.023Z,17.51
2022-10-01T17:05:03.629Z,17.44
2022-10-01T17:07:30.062Z,17.38
2022-10-01T17:09:56.528Z,17.41
2022-10-01T17:12:23.037Z,17.42
2022-10-01T17:14:49.570Z,17.42
2022-10-01T17:17:16.040Z,17.40
2022-10-01T17:19:42.490Z,17.35
2022-10-01T17:22:09.059Z,17.32
2022-10-01T17:24:35.615Z,17.25
2022-10-01T17:27:02.369Z,17.13
2022-10-01T17:29:30.932Z,17.18
2022-10-01T17:31:57.565Z,17.15
2022-10-01T17:34:24.428Z,17.09
2022-10-01T17:36:51.849Z,17.01
2022-10-01T17:39:18.461Z,16.95
2022-10-01T17:41:45.070Z,16.95
2022-10-01T17:44:11.526Z,16.85
2022-10-01T17:46:38.046Z,16.78
2022-10-01T17:49:04.527Z,16.76
2022-10-01T17:51:31.223Z,16.79
2022-10-01T17:53:58.352Z,16.79
2022-10-01T17:56:24.875Z,16.81
2022-10-01T17:58:52.913Z,16.90
2022-10-01T18:01:21.321Z,16.85
2022-10-01T18:03:48.349Z,16.83
2022-10-01T18:06:16.246Z,16.76
2022-10-01T18:08:58.160Z,16.75
2022-10-01T18:11:25.922Z,16.71
2022-10-01T18:13:53.202Z,16.72
2022-10-01T18:16:20.290Z,16.71
2022-10-01T18:19:51.817Z,16.78
2022-10-01T18:21:35.954Z,16.85
2022-10-01T18:24:04.685Z,16.77
2022-10-01T18:26:31.909Z,16.70
2022-10-01T18:28:58.915Z,16.72
2022-10-01T18:31:26.861Z,16.65
2022-10-01T18:33:58.047Z,16.64
2022-10-01T18:36:27.657Z,16.67
2022-10-01T18:39:16.944Z,16.48
2022-10-01T18:41:43.687Z,16.65
2022-10-01T18:44:20.729Z,16.59
2022-10-01T18:46:50.459Z,16.70
2022-10-01T18:49:25.912Z,16.76
2022-10-01T18:52:02.854Z,16.70
2022-10-01T18:54:48.322Z,16.73
2022-10-01T18:57:22.145Z,16.72
2022-10-01T18:59:54.408Z,16.73
2022-10-01T19:02:39.728Z,16.83
2022-10-01T19:05:35.826Z,16.84
2022-10-01T19:08:08.259Z,16.75
2022-10-01T19:10:40.414Z,16.81
2022-10-01T19:13:33.253Z,16.83
2022-10-01T19:16:06.037Z,16.75
2022-10-01T19:19:01.643Z,16.85
2022-10-01T19:21:45.334Z,16.74
2022-10-01T19:24:17.069Z,16.69
2022-10-01T19:26:52.822Z,16.61
2022-10-01T19:29:19.264Z,16.51
2022-10-01T19:31:52.689Z,16.47
2022-10-01T19:34:28.702Z,16.24
2022-10-01T19:36:59.846Z,16.27
2022-10-01T19:39:30.274Z,16.29
2022-10-01T19:42:03.699Z,16.40
2022-10-01T19:44:44.748Z,16.48
2022-10-01T19:47:36.332Z,16.42
2022-10-01T19:50:07.146Z,16.36
2022-10-01T19:52:35.857Z,16.37
2022-10-01T19:55:02.405Z,16.35
2022-10-01T19:57:30.629Z,16.17
2022-10-01T19:59:59.721Z,16.14
2022-10-01T20:03:01.863Z,15.91
2022-10-01T20:05:31.860Z,15.91
2022-10-01T20:08:25.051Z,15.84
2022-10-01T20:10:54.659Z,15.76
2022-10-01T20:13:33.852Z,15.74
2022-10-01T20:16:03.532Z,15.74
2022-10-01T20:18:39.455Z,15.74
2022-10-01T20:21:14.933Z,15.76
2022-10-01T20:23:59.976Z,15.77
2022-10-01T20:26:41.810Z,15.79
2022-10-01T20:29:26.806Z,15.81
2022-10-01T20:32:06.685Z,15.82
2022-10-01T20:34:52.307Z,15.85
2022-10-01T20:37:21.891Z,15.72
2022-10-01T20:39:50.938Z,15.73
2022-10-01T20:42:25.142Z,15.71
2022-10-01T20:44:53.339Z,15.74
2022-10-01T20:47:23.646Z,15.75
2022-10-01T20:49:50.177Z,15.72
2022-10-01T20:52:16.786Z,15.68
2022-10-01T20:54:53.225Z,15.68
2022-10-01T20:57:29.177Z,15.62
2022-10-01T20:59:59.870Z,15.60
2022-10-01T21:02:26.661Z,15.62
2022-10-01T21:05:01.680Z,15.61
2022-10-01T21:07:37.624Z,15.58
2022-10-01T21:10:17.825Z,15.57
2022-10-01T21:12:57.671Z,15.60
2022-10-01T21:15:35.405Z,15.62
2022-10-01T21:18:11.788Z,15.65
2022-10-01T21:20:44.148Z,15.65
2022-10-01T21:23:26.717Z,15.64
2022-10-01T21:25:55.558Z,15.61
2022-10-01T21:28:28.367Z,15.60
2022-10-01T21:30:54.870Z,15.62
2022-10-01T21:33:21.358Z,15.67
2022-10-01T21:35:50.916Z,15.63
2022-10-01T21:38:35.691Z,15.68
2022-10-01T21:41:02.269Z,15.64
2022-10-01T21:43:48.969Z,15.61
2022-10-01T21:46:15.506Z,15.62
2022-10-01T21:48:54.066Z,15.58
2022-10-01T21:51:49.341Z,15.59
2022-10-01T21:54:15.822Z,15.62
2022-10-01T21:56:49.002Z,15.63
2022-10-01T21:59:24.007Z,15.60
2022-10-01T22:02:03.642Z,15.58
2022-10-01T22:04:33.373Z,15.60
2022-10-01T22:07:15.380Z,15.59
2022-10-01T22:09:45.131Z,15.63
2022-10-01T22:12:12.204Z,15.64
2022-10-01T22:14:40.210Z,15.55
2022-10-01T22:17:16.055Z,15.53
2022-10-01T22:19:48.802Z,15.55
2022-10-01T22:22:21.081Z,15.51
2022-10-01T22:24:53.191Z,15.53
2022-10-01T22:27:23.060Z,15.52
2022-10-01T22:29:55.621Z,15.49
2022-10-01T22:32:26.031Z,15.49
2022-10-01T22:34:59.378Z,15.51
2022-10-01T22:37:37.184Z,15.54
2022-10-01T22:40:11.976Z,15.51
2022-10-01T22:42:43.356Z,15.44
2022-10-01T22:45:14.851Z,15.38
2022-10-01T22:47:54.523Z,15.31
2022-10-01T22:50:46.803Z,15.20
2022-10-01T22:53:38.591Z,15.21
2022-10-01T22:56:05.360Z,15.27
2022-10-01T22:59:17.832Z,15.22
2022-10-01T23:01:44.424Z,15.19
2022-10-01T23:04:22.072Z,15.20
2022-10-01T23:07:07.300Z,15.17
2022-10-01T23:09:47.875Z,15.18
2022-10-01T23:12:45.556Z,15.05
2022-10-01T23:15:34.077Z,15.00
2022-10-01T23:18:03.855Z,14.98
2022-10-01T23:20:32.998Z,14.98
2022-10-01T23:23:11.452Z,14.96
2022-10-01T23:25:46.985Z,14.95
2022-10-01T23:28:13.653Z,14.90
2022-10-01T23:30:52.481Z,14.87
2022-10-01T23:33:25.184Z,14.85
2022-10-01T23:36:00.849Z,14.79
2022-10-01T23:38:46.225Z,14.75
2022-10-01T23:41:16.032Z,14.74
2022-10-01T23:43:46.504Z,14.77
2022-10-01T23:46:29.579Z,14.76
2022-10-01T23:48:59.373Z,14.77
2022-10-01T23:51:32.507Z,14.80
2022-10-01T23:54:25.352Z,14.82
2022-10-01T23:57:03.032Z,14.89
2022-10-01T23:59:36.591Z,14.91
